DLH22C LFRS-EDDF
Flight info
| Callsign | DLH22C |
|---|---|
| Flight time | 1h 12m |
| Altitude | 34000 |
| Route | ANG UL976 OBATO UM163 TSU UN858 OQQAL DCT RANUX DCT VALEK DCT LIPNI UN858 LIMGO Z111 RAMOB IMCOM1D |
| Aircraft | A319/M-SDE3FGHIRWY/LB1 |
Departure
| Time | 2026-05-07 21:10 |
|---|---|
| Airport | Nantes Atlantique Airport (LFRS) |
Arrival
| Time | 2026-05-07 22:23 |
|---|---|
| Airport | Frankfurt Main Airport (EDDF) |
| Time | Latitude | Longitude | Altitude | Speed | Heading |
|---|---|---|---|---|---|
| 2026-05-07 20:59 | 47.15648 | -1.60154 | 90 ft | 0 kts | 57° |
| 2026-05-07 21:00 | 47.15648 | -1.60155 | 90 ft | 1 kts | 57° |
| 2026-05-07 21:00 | 47.15635 | -1.60185 | 90 ft | 4 kts | 59° |
| 2026-05-07 21:00 | 47.15621 | -1.60219 | 91 ft | 4 kts | 57° |
| 2026-05-07 21:00 | 47.15606 | -1.60251 | 91 ft | 4 kts | 56° |
| 2026-05-07 21:01 | 47.15599 | -1.60268 | 92 ft | 0 kts | 55° |
| 2026-05-07 21:04 | 47.15600 | -1.60260 | 90 ft | 1 kts | 76° |
| 2026-05-07 21:04 | 47.15589 | -1.60253 | 90 ft | 3 kts | 170° |
| 2026-05-07 21:04 | 47.15559 | -1.60279 | 91 ft | 7 kts | 215° |
| 2026-05-07 21:05 | 47.15522 | -1.60344 | 91 ft | 8 kts | 245° |
| 2026-05-07 21:05 | 47.15525 | -1.60414 | 92 ft | 7 kts | 301° |
| 2026-05-07 21:05 | 47.15556 | -1.60481 | 93 ft | 9 kts | 304° |
| 2026-05-07 21:05 | 47.15585 | -1.60574 | 92 ft | 11 kts | 262° |
| 2026-05-07 21:06 | 47.15520 | -1.60650 | 91 ft | 14 kts | 208° |
| 2026-05-07 21:06 | 47.15424 | -1.60723 | 92 ft | 16 kts | 207° |
| 2026-05-07 21:06 | 47.15328 | -1.60796 | 92 ft | 16 kts | 207° |
| 2026-05-07 21:06 | 47.15225 | -1.60875 | 92 ft | 18 kts | 207° |
| 2026-05-07 21:07 | 47.15114 | -1.60960 | 90 ft | 18 kts | 207° |
| 2026-05-07 21:07 | 47.14995 | -1.61051 | 88 ft | 20 kts | 207° |
| 2026-05-07 21:07 | 47.14874 | -1.61142 | 91 ft | 20 kts | 207° |
| 2026-05-07 21:07 | 47.14749 | -1.61237 | 89 ft | 21 kts | 207° |
| 2026-05-07 21:08 | 47.14622 | -1.61334 | 90 ft | 21 kts | 207° |
| 2026-05-07 21:08 | 47.14485 | -1.61438 | 89 ft | 22 kts | 207° |
| 2026-05-07 21:08 | 47.14343 | -1.61547 | 87 ft | 25 kts | 207° |
| 2026-05-07 21:08 | 47.14203 | -1.61653 | 87 ft | 15 kts | 207° |
| 2026-05-07 21:09 | 47.14150 | -1.61774 | 83 ft | 15 kts | 250° |
| 2026-05-07 21:09 | 47.14154 | -1.61908 | 87 ft | 9 kts | 297° |
| 2026-05-07 21:09 | 47.14179 | -1.61942 | 86 ft | 5 kts | 354° |
| 2026-05-07 21:09 | 47.14214 | -1.61914 | 87 ft | 7 kts | 27° |
| 2026-05-07 21:10 | 47.14308 | -1.61843 | 88 ft | 41 kts | 27° |
| 2026-05-07 21:10 | 47.14814 | -1.61456 | 91 ft | 119 kts | 27° |
| 2026-05-07 21:10 | 47.15704 | -1.60772 | 366 ft | 152 kts | 30° |
| 2026-05-07 21:10 | 47.16470 | -1.59708 | 1037 ft | 153 kts | 57° |
| 2026-05-07 21:11 | 47.16902 | -1.58217 | 1532 ft | 171 kts | 78° |
| 2026-05-07 21:11 | 47.17001 | -1.56385 | 1904 ft | 196 kts | 95° |
| 2026-05-07 21:11 | 47.16706 | -1.51850 | 3076 ft | 244 kts | 97° |
| 2026-05-07 21:12 | 47.16550 | -1.49311 | 3780 ft | 263 kts | 96° |
| 2026-05-07 21:12 | 47.16309 | -1.46644 | 4893 ft | 262 kts | 102° |
| 2026-05-07 21:12 | 47.15908 | -1.44026 | 5920 ft | 266 kts | 105° |
| 2026-05-07 21:12 | 47.15456 | -1.41357 | 6859 ft | 272 kts | 105° |
| 2026-05-07 21:13 | 47.15004 | -1.38618 | 7776 ft | 278 kts | 104° |
| 2026-05-07 21:13 | 47.14572 | -1.35817 | 8693 ft | 284 kts | 103° |
| 2026-05-07 21:13 | 47.14480 | -1.32885 | 9576 ft | 293 kts | 82° |
| 2026-05-07 21:13 | 47.15133 | -1.30018 | 10314 ft | 306 kts | 61° |
| 2026-05-07 21:14 | 47.16553 | -1.27554 | 10645 ft | 330 kts | 38° |
| 2026-05-07 21:14 | 47.18432 | -1.25449 | 11107 ft | 347 kts | 36° |
| 2026-05-07 21:14 | 47.20376 | -1.23284 | 11841 ft | 354 kts | 37° |
| 2026-05-07 21:14 | 47.22349 | -1.21072 | 12648 ft | 359 kts | 37° |
| 2026-05-07 21:15 | 47.24353 | -1.18804 | 13430 ft | 365 kts | 38° |
| 2026-05-07 21:15 | 47.26376 | -1.16507 | 14152 ft | 370 kts | 38° |
| 2026-05-07 21:15 | 47.28420 | -1.14178 | 14862 ft | 374 kts | 38° |
| 2026-05-07 21:15 | 47.30490 | -1.11816 | 15581 ft | 378 kts | 38° |
| 2026-05-07 21:16 | 47.32574 | -1.09436 | 16293 ft | 381 kts | 38° |
| 2026-05-07 21:16 | 47.34651 | -1.07057 | 16997 ft | 385 kts | 38° |
| 2026-05-07 21:16 | 47.36775 | -1.04620 | 17701 ft | 389 kts | 38° |
| 2026-05-07 21:16 | 47.38924 | -1.02155 | 18383 ft | 393 kts | 38° |
| 2026-05-07 21:17 | 47.41097 | -0.99662 | 18977 ft | 397 kts | 38° |
| 2026-05-07 21:17 | 47.43293 | -0.97143 | 19590 ft | 401 kts | 38° |
| 2026-05-07 21:17 | 47.45508 | -0.94603 | 20207 ft | 405 kts | 37° |
| 2026-05-07 21:17 | 47.47738 | -0.92045 | 20819 ft | 408 kts | 37° |
| 2026-05-07 21:18 | 47.49990 | -0.89453 | 21428 ft | 412 kts | 37° |
| 2026-05-07 21:18 | 47.52259 | -0.86836 | 22030 ft | 415 kts | 37° |
| 2026-05-07 21:18 | 47.54548 | -0.84196 | 22608 ft | 419 kts | 37° |
| 2026-05-07 21:18 | 47.56869 | -0.81559 | 23177 ft | 422 kts | 37° |
| 2026-05-07 21:19 | 47.59222 | -0.78919 | 23719 ft | 426 kts | 37° |
| 2026-05-07 21:19 | 47.61593 | -0.76276 | 24184 ft | 429 kts | 37° |
| 2026-05-07 21:19 | 47.63981 | -0.73609 | 24643 ft | 431 kts | 37° |
| 2026-05-07 21:19 | 47.66384 | -0.70914 | 25099 ft | 434 kts | 37° |
| 2026-05-07 21:20 | 47.68798 | -0.68198 | 25552 ft | 437 kts | 37° |
| 2026-05-07 21:20 | 47.71228 | -0.65458 | 25988 ft | 440 kts | 37° |
| 2026-05-07 21:20 | 47.73673 | -0.62693 | 26429 ft | 443 kts | 37° |
| 2026-05-07 21:20 | 47.76130 | -0.59905 | 26854 ft | 446 kts | 37° |
| 2026-05-07 21:21 | 47.78604 | -0.57097 | 27301 ft | 449 kts | 37° |
| 2026-05-07 21:21 | 47.81092 | -0.54271 | 27741 ft | 451 kts | 37° |
| 2026-05-07 21:21 | 47.83593 | -0.51429 | 28184 ft | 454 kts | 37° |
| 2026-05-07 21:21 | 47.86110 | -0.48565 | 28602 ft | 457 kts | 37° |
| 2026-05-07 21:22 | 47.88640 | -0.45680 | 29010 ft | 459 kts | 37° |
| 2026-05-07 21:22 | 47.91182 | -0.42781 | 29401 ft | 462 kts | 37° |
| 2026-05-07 21:22 | 47.93740 | -0.39861 | 29787 ft | 465 kts | 37° |
| 2026-05-07 21:22 | 47.96316 | -0.36921 | 30152 ft | 467 kts | 37° |
| 2026-05-07 21:23 | 47.98903 | -0.33960 | 30463 ft | 470 kts | 38° |
| 2026-05-07 21:23 | 48.01502 | -0.30975 | 30779 ft | 473 kts | 38° |
| 2026-05-07 21:23 | 48.04047 | -0.27844 | 31073 ft | 475 kts | 44° |
| 2026-05-07 21:23 | 48.06275 | -0.24209 | 31431 ft | 475 kts | 53° |
| 2026-05-07 21:24 | 48.08122 | -0.20134 | 31847 ft | 473 kts | 61° |
| 2026-05-07 21:24 | 48.09604 | -0.15740 | 32253 ft | 472 kts | 66° |
| 2026-05-07 21:24 | 48.11008 | -0.11300 | 32663 ft | 472 kts | 66° |
| 2026-05-07 21:24 | 48.12412 | -0.06853 | 33068 ft | 472 kts | 66° |
| 2026-05-07 21:25 | 48.13808 | -0.02412 | 33466 ft | 472 kts | 66° |
| 2026-05-07 21:25 | 48.15201 | 0.02044 | 33844 ft | 473 kts | 66° |
| 2026-05-07 21:25 | 48.16581 | 0.06478 | 34010 ft | 473 kts | 66° |
| 2026-05-07 21:25 | 48.17962 | 0.10922 | 34033 ft | 469 kts | 66° |
| 2026-05-07 21:26 | 48.20714 | 0.19772 | 34033 ft | 468 kts | 66° |
| 2026-05-07 21:26 | 48.23448 | 0.28618 | 34036 ft | 467 kts | 66° |
| 2026-05-07 21:27 | 48.26177 | 0.37458 | 34043 ft | 467 kts | 66° |
| 2026-05-07 21:27 | 48.28898 | 0.46303 | 34022 ft | 467 kts | 66° |
| 2026-05-07 21:28 | 48.31617 | 0.55166 | 34022 ft | 467 kts | 66° |
| 2026-05-07 21:28 | 48.34316 | 0.63998 | 34024 ft | 468 kts | 66° |
| 2026-05-07 21:29 | 48.37016 | 0.72902 | 34034 ft | 468 kts | 66° |
| 2026-05-07 21:29 | 48.39714 | 0.81821 | 34026 ft | 468 kts | 66° |
| 2026-05-07 21:30 | 48.42405 | 0.90734 | 34021 ft | 468 kts | 66° |
| 2026-05-07 21:30 | 48.45096 | 0.99677 | 34027 ft | 468 kts | 66° |
| 2026-05-07 21:31 | 48.47775 | 1.08615 | 34034 ft | 468 kts | 66° |
| 2026-05-07 21:31 | 48.50450 | 1.17560 | 34035 ft | 468 kts | 66° |
| 2026-05-07 21:32 | 48.53101 | 1.26458 | 34036 ft | 468 kts | 66° |
| 2026-05-07 21:32 | 48.55760 | 1.35429 | 34026 ft | 468 kts | 66° |
| 2026-05-07 21:33 | 48.58411 | 1.44415 | 34031 ft | 469 kts | 66° |
| 2026-05-07 21:33 | 48.61062 | 1.53416 | 34035 ft | 469 kts | 66° |
| 2026-05-07 21:34 | 48.63704 | 1.62437 | 34038 ft | 469 kts | 66° |
| 2026-05-07 21:34 | 48.66207 | 1.71558 | 34052 ft | 469 kts | 70° |
| 2026-05-07 21:35 | 48.68388 | 1.80782 | 34046 ft | 469 kts | 71° |
| 2026-05-07 21:35 | 48.70532 | 1.90111 | 34066 ft | 469 kts | 71° |
| 2026-05-07 21:36 | 48.72745 | 1.99394 | 34075 ft | 469 kts | 70° |
| 2026-05-07 21:36 | 48.74997 | 2.08700 | 34076 ft | 469 kts | 70° |
| 2026-05-07 21:37 | 48.76993 | 2.18118 | 34067 ft | 469 kts | 75° |
| 2026-05-07 21:37 | 48.78619 | 2.27610 | 34069 ft | 469 kts | 77° |
| 2026-05-07 21:38 | 48.80227 | 2.37194 | 34068 ft | 469 kts | 76° |
| 2026-05-07 21:38 | 48.81912 | 2.46763 | 34071 ft | 469 kts | 76° |
| 2026-05-07 21:39 | 48.83628 | 2.56320 | 34074 ft | 469 kts | 75° |
| 2026-05-07 21:39 | 48.85334 | 2.65900 | 34065 ft | 470 kts | 76° |
| 2026-05-07 21:40 | 48.87014 | 2.75487 | 34066 ft | 470 kts | 76° |
| 2026-05-07 21:40 | 48.88694 | 2.85098 | 34067 ft | 471 kts | 76° |
| 2026-05-07 21:41 | 48.90354 | 2.94654 | 34071 ft | 471 kts | 76° |
| 2026-05-07 21:41 | 48.92001 | 3.04187 | 34074 ft | 471 kts | 76° |
| 2026-05-07 21:42 | 48.93653 | 3.13831 | 34072 ft | 471 kts | 76° |
| 2026-05-07 21:42 | 48.95304 | 3.23477 | 34082 ft | 471 kts | 76° |
| 2026-05-07 21:43 | 48.96948 | 3.33127 | 34077 ft | 470 kts | 76° |
| 2026-05-07 21:43 | 48.98567 | 3.42730 | 34078 ft | 470 kts | 76° |
| 2026-05-07 21:44 | 49.00191 | 3.52392 | 34072 ft | 470 kts | 76° |
| 2026-05-07 21:44 | 49.01805 | 3.62030 | 34071 ft | 470 kts | 76° |
| 2026-05-07 21:45 | 49.03407 | 3.71697 | 34082 ft | 470 kts | 76° |
| 2026-05-07 21:45 | 49.05005 | 3.81361 | 34083 ft | 469 kts | 76° |
| 2026-05-07 21:46 | 49.06591 | 3.91004 | 34077 ft | 469 kts | 76° |
| 2026-05-07 21:46 | 49.08153 | 4.00593 | 34081 ft | 469 kts | 76° |
| 2026-05-07 21:47 | 49.09721 | 4.10260 | 34083 ft | 469 kts | 77° |
| 2026-05-07 21:47 | 49.11277 | 4.19925 | 34081 ft | 468 kts | 77° |
| 2026-05-07 21:48 | 49.12564 | 4.27972 | 34078 ft | 468 kts | 77° |
| 2026-05-07 21:48 | 49.14667 | 4.39072 | 34076 ft | 469 kts | 67° |
| 2026-05-07 21:49 | 49.17190 | 4.48267 | 34065 ft | 469 kts | 67° |
| 2026-05-07 21:49 | 49.19272 | 4.55953 | 34063 ft | 469 kts | 67° |
| 2026-05-07 21:50 | 49.21757 | 4.65182 | 34080 ft | 469 kts | 68° |
| 2026-05-07 21:50 | 49.24218 | 4.74354 | 34086 ft | 468 kts | 68° |
| 2026-05-07 21:51 | 49.26687 | 4.83582 | 34083 ft | 467 kts | 68° |
| 2026-05-07 21:51 | 49.29147 | 4.92797 | 34078 ft | 467 kts | 68° |
| 2026-05-07 21:52 | 49.31586 | 5.01955 | 34078 ft | 467 kts | 68° |
| 2026-05-07 21:52 | 49.34029 | 5.11172 | 34076 ft | 467 kts | 68° |
| 2026-05-07 21:53 | 49.36460 | 5.20409 | 34078 ft | 467 kts | 68° |
| 2026-05-07 21:53 | 49.38884 | 5.29648 | 34076 ft | 467 kts | 68° |
| 2026-05-07 21:54 | 49.41300 | 5.38895 | 34087 ft | 466 kts | 68° |
| 2026-05-07 21:54 | 49.43695 | 5.48089 | 34090 ft | 465 kts | 68° |
| 2026-05-07 21:55 | 49.46097 | 5.57326 | 34092 ft | 465 kts | 68° |
| 2026-05-07 21:55 | 49.48488 | 5.66567 | 34086 ft | 464 kts | 68° |
| 2026-05-07 21:56 | 49.50861 | 5.75822 | 34078 ft | 464 kts | 68° |
| 2026-05-07 21:56 | 49.53173 | 5.85063 | 34076 ft | 465 kts | 69° |
| 2026-05-07 21:57 | 49.55437 | 5.94408 | 34077 ft | 465 kts | 69° |
| 2026-05-07 21:57 | 49.57708 | 6.03663 | 34079 ft | 465 kts | 69° |
| 2026-05-07 21:58 | 49.60013 | 6.12996 | 34092 ft | 465 kts | 69° |
| 2026-05-07 21:58 | 49.62300 | 6.22308 | 34086 ft | 464 kts | 69° |
| 2026-05-07 21:59 | 49.64936 | 6.31330 | 34078 ft | 463 kts | 58° |
| 2026-05-07 21:59 | 49.68234 | 6.39872 | 34076 ft | 463 kts | 58° |
| 2026-05-07 22:00 | 49.71558 | 6.48394 | 34071 ft | 462 kts | 54° |
| 2026-05-07 22:00 | 49.75865 | 6.55678 | 34071 ft | 458 kts | 37° |
| 2026-05-07 22:01 | 49.80371 | 6.62596 | 34054 ft | 462 kts | 58° |
| 2026-05-07 22:01 | 49.81720 | 6.67126 | 34055 ft | 464 kts | 70° |
| 2026-05-07 22:01 | 49.82789 | 6.71851 | 34048 ft | 465 kts | 70° |
| 2026-05-07 22:02 | 49.84917 | 6.81352 | 34048 ft | 467 kts | 70° |
| 2026-05-07 22:02 | 49.87027 | 6.90807 | 34053 ft | 468 kts | 70° |
| 2026-05-07 22:03 | 49.89156 | 7.00363 | 34058 ft | 469 kts | 70° |
| 2026-05-07 22:03 | 49.91284 | 7.09927 | 34065 ft | 469 kts | 70° |
| 2026-05-07 22:04 | 49.92338 | 7.14694 | 33822 ft | 462 kts | 71° |
| 2026-05-07 22:04 | 49.93377 | 7.19404 | 32630 ft | 460 kts | 70° |
| 2026-05-07 22:04 | 49.94417 | 7.24117 | 31342 ft | 461 kts | 70° |
| 2026-05-07 22:04 | 49.95442 | 7.28781 | 30119 ft | 462 kts | 71° |
| 2026-05-07 22:05 | 49.96478 | 7.33515 | 29058 ft | 453 kts | 71° |
| 2026-05-07 22:05 | 49.97473 | 7.38063 | 28059 ft | 445 kts | 71° |
| 2026-05-07 22:05 | 49.98461 | 7.42582 | 27073 ft | 438 kts | 71° |
| 2026-05-07 22:05 | 49.99431 | 7.47029 | 26117 ft | 432 kts | 71° |
| 2026-05-07 22:06 | 50.00386 | 7.51425 | 25184 ft | 426 kts | 71° |
| 2026-05-07 22:06 | 50.01326 | 7.55760 | 24285 ft | 420 kts | 71° |
| 2026-05-07 22:06 | 50.02251 | 7.60041 | 23388 ft | 415 kts | 71° |
| 2026-05-07 22:06 | 50.03164 | 7.64277 | 22452 ft | 409 kts | 71° |
| 2026-05-07 22:07 | 50.04064 | 7.68451 | 21617 ft | 404 kts | 71° |
| 2026-05-07 22:07 | 50.04940 | 7.72521 | 20804 ft | 398 kts | 71° |
| 2026-05-07 22:07 | 50.05811 | 7.76587 | 20004 ft | 392 kts | 71° |
| 2026-05-07 22:07 | 50.06665 | 7.80589 | 19210 ft | 388 kts | 71° |
| 2026-05-07 22:08 | 50.07510 | 7.84555 | 18411 ft | 383 kts | 71° |
| 2026-05-07 22:08 | 50.08369 | 7.88460 | 17530 ft | 378 kts | 70° |
| 2026-05-07 22:08 | 50.09280 | 7.92280 | 16684 ft | 374 kts | 69° |
| 2026-05-07 22:08 | 50.10215 | 7.96033 | 15841 ft | 369 kts | 68° |
| 2026-05-07 22:09 | 50.11150 | 7.99734 | 15043 ft | 365 kts | 68° |
| 2026-05-07 22:09 | 50.12049 | 8.03298 | 14705 ft | 348 kts | 68° |
| 2026-05-07 22:09 | 50.12901 | 8.06716 | 14570 ft | 327 kts | 69° |
| 2026-05-07 22:09 | 50.13705 | 8.09973 | 14175 ft | 318 kts | 69° |
| 2026-05-07 22:10 | 50.14486 | 8.13179 | 13612 ft | 314 kts | 69° |
| 2026-05-07 22:10 | 50.15257 | 8.16354 | 13015 ft | 311 kts | 69° |
| 2026-05-07 22:10 | 50.16017 | 8.19496 | 12449 ft | 307 kts | 69° |
| 2026-05-07 22:10 | 50.16764 | 8.22602 | 11886 ft | 304 kts | 69° |
| 2026-05-07 22:11 | 50.17490 | 8.25629 | 11338 ft | 300 kts | 69° |
| 2026-05-07 22:11 | 50.18217 | 8.28658 | 10780 ft | 296 kts | 69° |
| 2026-05-07 22:11 | 50.18937 | 8.31658 | 10224 ft | 293 kts | 69° |
| 2026-05-07 22:11 | 50.19382 | 8.34726 | 9621 ft | 289 kts | 90° |
| 2026-05-07 22:12 | 50.18966 | 8.37742 | 8999 ft | 285 kts | 117° |
| 2026-05-07 22:12 | 50.17764 | 8.40132 | 8366 ft | 280 kts | 143° |
| 2026-05-07 22:12 | 50.16050 | 8.41520 | 7717 ft | 276 kts | 161° |
| 2026-05-07 22:12 | 50.14229 | 8.42344 | 7061 ft | 274 kts | 176° |
| 2026-05-07 22:13 | 50.12366 | 8.42025 | 6452 ft | 268 kts | 201° |
| 2026-05-07 22:13 | 50.10806 | 8.40528 | 5781 ft | 263 kts | 226° |
| 2026-05-07 22:13 | 50.09809 | 8.38159 | 5240 ft | 262 kts | 250° |
| 2026-05-07 22:13 | 50.09182 | 8.35484 | 5105 ft | 264 kts | 251° |
| 2026-05-07 22:14 | 50.08549 | 8.32831 | 5113 ft | 266 kts | 250° |
| 2026-05-07 22:14 | 50.07896 | 8.30134 | 5115 ft | 266 kts | 250° |
| 2026-05-07 22:14 | 50.07236 | 8.27435 | 5121 ft | 266 kts | 250° |
| 2026-05-07 22:14 | 50.06576 | 8.24744 | 5116 ft | 266 kts | 250° |
| 2026-05-07 22:15 | 50.05917 | 8.22057 | 5116 ft | 267 kts | 250° |
| 2026-05-07 22:15 | 50.05253 | 8.19355 | 5116 ft | 267 kts | 250° |
| 2026-05-07 22:15 | 50.04589 | 8.16650 | 5115 ft | 267 kts | 250° |
| 2026-05-07 22:15 | 50.03838 | 8.14010 | 5109 ft | 268 kts | 237° |
| 2026-05-07 22:16 | 50.02543 | 8.12040 | 5110 ft | 254 kts | 212° |
| 2026-05-07 22:16 | 50.00965 | 8.11089 | 5111 ft | 235 kts | 189° |
| 2026-05-07 22:16 | 49.99386 | 8.11105 | 5113 ft | 220 kts | 168° |
| 2026-05-07 22:16 | 49.98028 | 8.11906 | 5111 ft | 205 kts | 148° |
| 2026-05-07 22:17 | 49.96982 | 8.13318 | 5110 ft | 197 kts | 127° |
| 2026-05-07 22:17 | 49.96324 | 8.15164 | 5102 ft | 196 kts | 107° |
| 2026-05-07 22:17 | 49.96105 | 8.17227 | 4988 ft | 191 kts | 88° |
| 2026-05-07 22:17 | 49.96338 | 8.19214 | 4740 ft | 186 kts | 69° |
| 2026-05-07 22:18 | 49.96792 | 8.21075 | 4473 ft | 184 kts | 68° |
| 2026-05-07 22:18 | 49.97679 | 8.24730 | 3962 ft | 181 kts | 68° |
| 2026-05-07 22:18 | 49.98122 | 8.26557 | 3699 ft | 180 kts | 68° |
| 2026-05-07 22:19 | 49.98556 | 8.28345 | 3450 ft | 178 kts | 68° |
| 2026-05-07 22:19 | 49.98990 | 8.30137 | 3188 ft | 177 kts | 69° |
| 2026-05-07 22:19 | 49.99422 | 8.31923 | 2925 ft | 175 kts | 69° |
| 2026-05-07 22:19 | 49.99849 | 8.33691 | 2675 ft | 173 kts | 69° |
| 2026-05-07 22:20 | 50.00261 | 8.35395 | 2438 ft | 161 kts | 69° |
| 2026-05-07 22:20 | 50.00630 | 8.36924 | 2202 ft | 141 kts | 69° |
| 2026-05-07 22:20 | 50.00959 | 8.38290 | 2012 ft | 130 kts | 69° |
| 2026-05-07 22:20 | 50.01269 | 8.39578 | 1824 ft | 125 kts | 69° |
| 2026-05-07 22:21 | 50.01573 | 8.40839 | 1648 ft | 124 kts | 69° |
| 2026-05-07 22:21 | 50.01875 | 8.42091 | 1463 ft | 124 kts | 69° |
| 2026-05-07 22:21 | 50.02176 | 8.43345 | 1279 ft | 124 kts | 69° |
| 2026-05-07 22:21 | 50.02478 | 8.44591 | 1104 ft | 124 kts | 68° |
| 2026-05-07 22:22 | 50.02783 | 8.45850 | 915 ft | 125 kts | 68° |
| 2026-05-07 22:22 | 50.03088 | 8.47108 | 740 ft | 124 kts | 67° |
| 2026-05-07 22:22 | 50.03385 | 8.48359 | 540 ft | 123 kts | 67° |
| 2026-05-07 22:22 | 50.03679 | 8.49608 | 386 ft | 123 kts | 67° |
| 2026-05-07 22:23 | 50.03958 | 8.50780 | 323 ft | 101 kts | 68° |
| 2026-05-07 22:23 | 50.04146 | 8.51549 | 331 ft | 54 kts | 69° |
| 2026-05-07 22:23 | 50.04266 | 8.52046 | 339 ft | 46 kts | 69° |
| 2026-05-07 22:23 | 50.04371 | 8.52480 | 349 ft | 35 kts | 70° |
| 2026-05-07 22:24 | 50.04392 | 8.52816 | 349 ft | 28 kts | 97° |
| 2026-05-07 22:24 | 50.04362 | 8.53104 | 355 ft | 25 kts | 99° |
| 2026-05-07 22:24 | 50.04359 | 8.53336 | 372 ft | 19 kts | 72° |
| 2026-05-07 22:24 | 50.04396 | 8.53508 | 375 ft | 15 kts | 82° |
| 2026-05-07 22:25 | 50.04406 | 8.53677 | 375 ft | 16 kts | 83° |
| 2026-05-07 22:25 | 50.04419 | 8.53859 | 375 ft | 17 kts | 85° |
| 2026-05-07 22:25 | 50.04431 | 8.54054 | 375 ft | 19 kts | 84° |
| 2026-05-07 22:25 | 50.04446 | 8.54260 | 375 ft | 20 kts | 83° |
| 2026-05-07 22:26 | 50.04452 | 8.54493 | 368 ft | 24 kts | 99° |
| 2026-05-07 22:26 | 50.04358 | 8.54729 | 360 ft | 28 kts | 143° |
| 2026-05-07 22:26 | 50.04203 | 8.54836 | 353 ft | 23 kts | 160° |
| 2026-05-07 22:26 | 50.04053 | 8.54921 | 354 ft | 19 kts | 160° |
| 2026-05-07 22:27 | 50.03973 | 8.54818 | 356 ft | 18 kts | 249° |
| 2026-05-07 22:27 | 50.03905 | 8.54770 | 357 ft | 10 kts | 160° |
| 2026-05-07 22:27 | 50.03866 | 8.54788 | 358 ft | 1 kts | 158° |